createdAt,value
2023-04-21T00:00:55.024Z,23.43
2023-04-21T00:01:55.101Z,23.43
2023-04-21T00:02:55.376Z,23.43
2023-04-21T00:03:55.407Z,23.43
2023-04-21T00:04:55.557Z,23.43
2023-04-21T00:05:55.324Z,23.43
2023-04-21T00:06:55.342Z,23.42
2023-04-21T00:07:55.380Z,23.43
2023-04-21T00:08:55.449Z,23.43
2023-04-21T00:09:55.526Z,23.43
2023-04-21T00:10:55.543Z,23.42
2023-04-21T00:11:55.605Z,23.43
2023-04-21T00:12:55.735Z,23.43
2023-04-21T00:13:55.718Z,23.42
2023-04-21T00:14:55.784Z,23.42
2023-04-21T00:15:55.914Z,23.42
2023-04-21T00:16:55.864Z,23.42
2023-04-21T00:17:56.008Z,23.41
2023-04-21T00:18:55.974Z,23.41
2023-04-21T00:19:55.991Z,23.41
2023-04-21T00:20:56.022Z,23.41
2023-04-21T00:21:56.117Z,23.41
2023-04-21T00:22:56.146Z,23.41
2023-04-21T00:23:56.178Z,23.41
2023-04-21T00:24:56.221Z,23.40
2023-04-21T00:25:56.231Z,23.40
2023-04-21T00:26:56.362Z,23.41
2023-04-21T00:27:56.367Z,23.40
2023-04-21T00:28:56.381Z,23.40
2023-04-21T00:29:56.450Z,23.41
2023-04-21T00:30:56.470Z,23.40
2023-04-21T00:31:56.540Z,23.40
2023-04-21T00:32:56.625Z,23.40
2023-04-21T00:33:56.604Z,23.40
2023-04-21T00:34:56.630Z,23.41
2023-04-21T00:35:56.665Z,23.41
2023-04-21T00:36:56.719Z,23.41
2023-04-21T00:37:56.794Z,23.40
2023-04-21T00:38:56.850Z,23.40
2023-04-21T00:39:56.895Z,23.40
2023-04-21T00:40:56.913Z,23.40
2023-04-21T00:41:57.068Z,23.40
2023-04-21T00:42:57.026Z,23.40
2023-04-21T00:43:57.067Z,23.40
2023-04-21T00:44:57.105Z,23.40
2023-04-21T00:45:57.113Z,23.40
2023-04-21T00:46:57.223Z,23.40
2023-04-21T00:47:57.342Z,23.40
2023-04-21T00:48:57.273Z,23.40
2023-04-21T00:49:57.322Z,23.39
2023-04-21T00:50:57.372Z,23.40
2023-04-21T00:51:57.388Z,23.39
2023-04-21T00:52:57.410Z,23.39
2023-04-21T00:53:57.468Z,23.38
2023-04-21T00:54:57.483Z,23.39
2023-04-21T00:55:57.536Z,23.39
2023-04-21T00:56:57.645Z,23.38
2023-04-21T00:57:57.630Z,23.39
2023-04-21T00:58:57.683Z,23.39
2023-04-21T00:59:57.701Z,23.39
2023-04-21T01:00:57.807Z,23.39
2023-04-21T01:01:57.867Z,23.38
2023-04-21T01:02:57.926Z,23.39
2023-04-21T01:03:58.058Z,23.39
2023-04-21T01:04:57.905Z,23.38
2023-04-21T01:05:57.940Z,23.39
2023-04-21T01:06:57.958Z,23.39
2023-04-21T01:07:58.025Z,23.38
2023-04-21T01:08:58.076Z,23.39
2023-04-21T01:09:58.118Z,23.38
2023-04-21T01:10:58.154Z,23.38
2023-04-21T01:11:58.148Z,23.39
2023-04-21T01:12:58.242Z,23.38
2023-04-21T01:13:58.213Z,23.38
2023-04-21T01:14:58.225Z,23.38
2023-04-21T01:15:58.288Z,23.38
2023-04-21T01:16:58.351Z,23.38
2023-04-21T01:17:58.411Z,23.37
2023-04-21T01:18:58.435Z,23.38
2023-04-21T01:19:58.440Z,23.38
2023-04-21T01:20:58.474Z,23.38
2023-04-21T01:21:58.525Z,23.38
2023-04-21T01:22:58.564Z,23.37
2023-04-21T01:23:58.602Z,23.38
2023-04-21T01:24:58.636Z,23.37
2023-04-21T01:25:58.674Z,23.38
2023-04-21T01:26:58.754Z,23.38
2023-04-21T01:27:58.793Z,23.37
2023-04-21T01:28:58.820Z,23.38
2023-04-21T01:29:58.917Z,23.37
2023-04-21T01:30:58.932Z,23.38
2023-04-21T01:31:59.018Z,23.38
2023-04-21T01:32:59.127Z,23.39
2023-04-21T01:33:59.100Z,23.40
2023-04-21T01:34:59.114Z,23.40
2023-04-21T01:35:59.217Z,23.41
2023-04-21T01:36:59.234Z,23.42
2023-04-21T01:37:59.388Z,23.43
2023-04-21T01:38:59.344Z,23.44
2023-04-21T01:39:59.421Z,23.46
2023-04-21T01:40:59.494Z,23.47
2023-04-21T01:41:59.547Z,23.49
2023-04-21T01:42:59.622Z,23.51
2023-04-21T01:43:59.687Z,23.54
2023-04-21T01:44:59.742Z,23.56
2023-04-21T01:45:59.772Z,23.59
2023-04-21T01:46:59.807Z,23.61
2023-04-21T01:47:59.883Z,23.66
2023-04-21T01:48:59.911Z,23.69
2023-04-21T01:49:59.923Z,23.72
2023-04-21T01:50:59.958Z,23.76
2023-04-21T01:52:00.056Z,23.81
2023-04-21T01:53:00.123Z,23.84
2023-04-21T01:54:00.125Z,23.87
2023-04-21T01:55:00.158Z,23.89
2023-04-21T01:56:00.181Z,23.92
2023-04-21T01:57:00.246Z,23.95
2023-04-21T01:58:00.198Z,23.97
2023-04-21T01:59:00.236Z,24.00
2023-04-21T02:00:00.259Z,24.01
2023-04-21T02:01:00.355Z,24.03
2023-04-21T02:02:00.376Z,24.06
2023-04-21T02:03:00.448Z,24.08
2023-04-21T02:04:00.646Z,24.10
2023-04-21T02:05:00.391Z,24.11
2023-04-21T02:06:00.386Z,24.13
2023-04-21T02:07:00.431Z,24.14
2023-04-21T02:08:00.438Z,24.14
2023-04-21T02:09:00.467Z,24.17
2023-04-21T02:10:00.484Z,24.17
2023-04-21T02:11:00.452Z,24.20
2023-04-21T02:12:00.486Z,24.20
2023-04-21T02:13:00.509Z,24.22
2023-04-21T02:14:00.528Z,24.23
2023-04-21T02:15:00.543Z,24.23
2023-04-21T02:16:12.162Z,24.25
2023-04-21T02:17:01.519Z,24.25
2023-04-21T02:18:00.606Z,24.26
2023-04-21T02:19:00.505Z,24.27
2023-04-21T02:20:01.918Z,24.27
2023-04-21T02:21:00.484Z,24.28
2023-04-21T02:22:00.492Z,24.29
2023-04-21T02:23:00.465Z,24.30
2023-04-21T02:24:00.462Z,24.31
2023-04-21T02:25:00.463Z,24.32
2023-04-21T02:26:00.462Z,24.33
2023-04-21T02:27:00.437Z,24.34
2023-04-21T02:28:00.429Z,24.35
2023-04-21T02:29:00.520Z,24.36
2023-04-21T02:30:00.436Z,24.37
2023-04-21T02:31:00.407Z,24.38
2023-04-21T02:32:07.804Z,24.38
2023-04-21T02:33:01.434Z,24.38
2023-04-21T02:34:00.374Z,24.38
2023-04-21T02:35:00.373Z,24.39
2023-04-21T02:36:00.394Z,24.40
2023-04-21T02:37:00.360Z,24.40
2023-04-21T02:38:00.355Z,24.40
2023-04-21T02:39:00.358Z,24.41
2023-04-21T02:40:00.351Z,24.42
2023-04-21T02:41:00.321Z,24.43
2023-04-21T02:42:00.330Z,24.43
2023-04-21T02:43:00.332Z,24.44
2023-04-21T02:44:00.289Z,24.44
2023-04-21T02:45:00.281Z,24.45
2023-04-21T02:46:00.292Z,24.46
2023-04-21T02:47:00.458Z,24.46
2023-04-21T02:48:00.324Z,24.46
2023-04-21T02:49:00.265Z,24.47
2023-04-21T02:50:00.269Z,24.47
2023-04-21T02:51:00.249Z,24.48
2023-04-21T02:52:00.253Z,24.48
2023-04-21T02:53:00.245Z,24.50
2023-04-21T02:54:00.235Z,24.50
2023-04-21T02:55:00.256Z,24.51
2023-04-21T02:56:00.312Z,24.50
2023-04-21T02:57:00.224Z,24.52
2023-04-21T02:58:00.219Z,24.52
2023-04-21T02:59:00.240Z,24.53
2023-04-21T03:00:00.208Z,24.53
2023-04-21T03:01:00.267Z,24.53
2023-04-21T03:02:00.405Z,24.54
2023-04-21T03:03:00.342Z,24.54
2023-04-21T03:04:00.289Z,24.54
2023-04-21T03:05:00.181Z,24.55
2023-04-21T03:06:00.186Z,24.54
2023-04-21T03:07:00.221Z,24.57
2023-04-21T03:08:00.149Z,24.56
2023-04-21T03:09:00.157Z,24.57
2023-04-21T03:10:00.149Z,24.58
2023-04-21T03:11:00.178Z,24.58
2023-04-21T03:12:00.120Z,24.59
2023-04-21T03:13:00.154Z,24.60
2023-04-21T03:14:00.227Z,24.60
2023-04-21T03:15:00.297Z,24.61
2023-04-21T03:16:00.353Z,24.60
2023-04-21T03:17:00.399Z,24.61
2023-04-21T03:18:00.478Z,24.62
2023-04-21T03:19:00.465Z,24.62
2023-04-21T03:20:00.555Z,24.61
2023-04-21T03:21:00.577Z,24.62
2023-04-21T03:22:00.647Z,24.63
2023-04-21T03:23:00.683Z,24.63
2023-04-21T03:24:00.753Z,24.64
2023-04-21T03:25:00.793Z,24.64
2023-04-21T03:26:00.895Z,24.64
2023-04-21T03:27:00.931Z,24.64
2023-04-21T03:28:00.988Z,24.64
2023-04-21T03:29:01.065Z,24.64
2023-04-21T03:30:01.093Z,24.65
2023-04-21T03:31:01.190Z,24.66
2023-04-21T03:32:01.383Z,24.66
2023-04-21T03:33:01.293Z,24.66
2023-04-21T03:34:01.371Z,24.67
2023-04-21T03:35:01.450Z,24.67
2023-04-21T03:36:01.494Z,24.68
2023-04-21T03:37:01.562Z,24.68
2023-04-21T03:38:03.885Z,24.68
2023-04-21T03:39:20.301Z,24.68
2023-04-21T03:40:02.800Z,24.69
2023-04-21T03:41:01.815Z,24.68
2023-04-21T03:42:01.785Z,24.68
2023-04-21T03:43:01.766Z,24.69
2023-04-21T03:44:01.981Z,24.70
2023-04-21T03:45:01.765Z,24.70
2023-04-21T03:46:01.784Z,24.70
2023-04-21T03:47:01.788Z,24.69
2023-04-21T03:48:01.826Z,24.70
2023-04-21T03:49:03.781Z,24.70
2023-04-21T03:50:01.913Z,24.72
2023-04-21T03:51:02.021Z,24.72
2023-04-21T03:52:02.046Z,24.72
2023-04-21T03:53:02.097Z,24.73
2023-04-21T03:54:02.157Z,24.72
2023-04-21T03:55:02.198Z,24.73
2023-04-21T03:56:02.256Z,24.74
2023-04-21T03:57:02.307Z,24.74
2023-04-21T03:58:02.373Z,24.75
2023-04-21T03:59:02.455Z,24.75
2023-04-21T04:00:02.500Z,24.74
2023-04-21T04:01:02.525Z,24.74
2023-04-21T04:02:02.676Z,24.75
2023-04-21T04:03:02.775Z,24.75
2023-04-21T04:04:02.829Z,24.74
2023-04-21T04:05:02.795Z,24.74
2023-04-21T04:06:02.831Z,24.75
2023-04-21T04:07:02.861Z,24.76
2023-04-21T04:08:02.889Z,24.76
2023-04-21T04:09:02.995Z,24.77
2023-04-21T04:10:03.040Z,24.77
2023-04-21T04:11:03.088Z,24.77
2023-04-21T04:12:03.096Z,24.77
2023-04-21T04:13:03.179Z,24.77
2023-04-21T04:14:03.204Z,24.78
2023-04-21T04:15:03.316Z,24.78
2023-04-21T04:16:03.334Z,24.79
2023-04-21T04:17:03.375Z,24.79
2023-04-21T04:18:03.429Z,24.79
2023-04-21T04:19:03.462Z,24.80
2023-04-21T04:20:03.576Z,24.81
2023-04-21T04:21:03.575Z,24.81
2023-04-21T04:22:03.610Z,24.80
2023-04-21T04:23:03.664Z,24.81
2023-04-21T04:24:03.713Z,24.80
2023-04-21T04:25:03.748Z,24.80
2023-04-21T04:26:03.803Z,24.80
2023-04-21T04:27:03.850Z,24.81
2023-04-21T04:28:03.918Z,24.81
2023-04-21T04:29:03.932Z,24.82
2023-04-21T04:30:04.020Z,24.82
2023-04-21T04:31:04.131Z,24.82
2023-04-21T04:32:04.119Z,24.82
2023-04-21T04:33:04.163Z,24.82
2023-04-21T04:34:04.192Z,24.83
2023-04-21T04:35:04.238Z,24.83
2023-04-21T04:36:04.275Z,24.83
2023-04-21T04:37:04.347Z,24.83
2023-04-21T04:38:04.375Z,24.82
2023-04-21T04:39:04.430Z,24.82
2023-04-21T04:40:04.440Z,24.82
2023-04-21T04:41:04.505Z,24.82
2023-04-21T04:42:04.555Z,24.83
2023-04-21T04:43:04.595Z,24.82
2023-04-21T04:44:04.689Z,24.82
2023-04-21T04:45:04.729Z,24.83
2023-04-21T04:46:04.740Z,24.83
2023-04-21T04:47:04.990Z,24.82
2023-04-21T04:48:04.921Z,24.83
2023-04-21T04:49:04.938Z,24.82
2023-04-21T04:50:04.964Z,24.82
2023-04-21T04:51:05.011Z,24.82
2023-04-21T04:52:05.095Z,24.81
2023-04-21T04:53:05.159Z,24.82
2023-04-21T04:54:05.209Z,24.82
2023-04-21T04:55:05.292Z,24.81
2023-04-21T04:56:05.288Z,24.81
2023-04-21T04:57:05.337Z,24.82
2023-04-21T04:58:05.388Z,24.82
2023-04-21T04:59:05.423Z,24.83
2023-04-21T05:00:05.504Z,24.82
2023-04-21T05:01:12.612Z,24.82
2023-04-21T05:02:05.626Z,24.82
2023-04-21T05:03:05.629Z,24.82
2023-04-21T05:04:05.663Z,24.82
2023-04-21T05:05:05.722Z,24.83
2023-04-21T05:06:05.532Z,24.82
2023-04-21T05:07:05.530Z,24.82
2023-04-21T05:08:05.565Z,24.83
2023-04-21T05:09:05.488Z,24.83
2023-04-21T05:10:05.501Z,24.84
2023-04-21T05:11:05.477Z,24.83
2023-04-21T05:12:05.465Z,24.82
2023-04-21T05:13:05.457Z,24.83
2023-04-21T05:14:05.500Z,24.83
2023-04-21T05:15:05.424Z,24.83
2023-04-21T05:16:05.482Z,24.83
2023-04-21T05:17:05.540Z,24.83
2023-04-21T05:18:05.544Z,24.83
2023-04-21T05:19:05.448Z,24.83
2023-04-21T05:20:05.413Z,24.83
2023-04-21T05:21:05.422Z,24.83
2023-04-21T05:22:05.428Z,24.83
2023-04-21T05:23:05.426Z,24.82
2023-04-21T05:24:05.531Z,24.83
2023-04-21T05:25:05.501Z,24.83
2023-04-21T05:26:05.570Z,24.83
2023-04-21T05:27:05.630Z,24.83
2023-04-21T05:28:05.667Z,24.83
2023-04-21T05:29:05.742Z,24.83
2023-04-21T05:30:05.780Z,24.83
2023-04-21T05:31:05.845Z,24.80
2023-04-21T05:32:05.892Z,24.50
2023-04-21T05:33:05.999Z,23.90
2023-04-21T05:34:06.042Z,23.25
2023-04-21T05:35:05.976Z,22.83
2023-04-21T05:36:06.018Z,22.46
2023-04-21T05:37:06.051Z,21.99
2023-04-21T05:38:06.122Z,21.58
2023-04-21T05:39:06.084Z,21.35
2023-04-21T05:40:06.158Z,21.27
2023-04-21T05:41:06.228Z,21.33
2023-04-21T05:42:06.262Z,21.47
2023-04-21T05:43:06.232Z,21.62
2023-04-21T05:44:06.247Z,21.80
2023-04-21T05:45:06.307Z,21.96
2023-04-21T05:46:13.342Z,22.13
2023-04-21T05:47:06.357Z,22.30
2023-04-21T05:48:06.405Z,22.49
2023-04-21T05:49:06.337Z,22.68
2023-04-21T05:50:06.328Z,22.84
2023-04-21T05:51:06.295Z,22.99
2023-04-21T05:52:06.311Z,23.14
2023-04-21T05:53:06.284Z,23.28
2023-04-21T05:54:06.297Z,23.40
2023-04-21T05:55:06.332Z,23.52
2023-04-21T05:56:06.300Z,23.62
2023-04-21T05:57:06.262Z,23.72
2023-04-21T05:58:06.270Z,23.80
2023-04-21T05:59:06.593Z,23.89
2023-04-21T06:00:06.246Z,23.97
2023-04-21T06:01:06.310Z,24.05
2023-04-21T06:02:06.306Z,24.13
2023-04-21T06:03:06.339Z,24.19
2023-04-21T06:04:06.836Z,24.23
2023-04-21T06:05:06.454Z,24.28
2023-04-21T06:06:06.196Z,24.34
2023-04-21T06:07:06.191Z,24.39
2023-04-21T06:08:06.197Z,24.45
2023-04-21T06:09:06.181Z,24.50
2023-04-21T06:10:06.158Z,24.55
2023-04-21T06:11:06.155Z,24.59
2023-04-21T06:12:06.183Z,24.63
2023-04-21T06:13:06.170Z,24.66
2023-04-21T06:14:06.148Z,24.70
2023-04-21T06:15:06.185Z,24.74
2023-04-21T06:16:06.228Z,24.77
2023-04-21T06:17:06.173Z,24.80
2023-04-21T06:18:06.183Z,24.83
2023-04-21T06:19:06.126Z,24.85
2023-04-21T06:20:06.108Z,24.89
2023-04-21T06:21:06.117Z,24.91
2023-04-21T06:22:06.127Z,24.93
2023-04-21T06:23:06.105Z,24.96
2023-04-21T06:24:06.124Z,24.99
2023-04-21T06:25:06.113Z,25.01
2023-04-21T06:26:06.166Z,25.04
2023-04-21T06:27:06.178Z,25.05
2023-04-21T06:28:06.163Z,25.07
2023-04-21T06:29:06.176Z,25.11
2023-04-21T06:30:06.220Z,25.12
2023-04-21T06:31:08.772Z,25.14
2023-04-21T06:32:06.277Z,25.15
2023-04-21T06:33:06.297Z,25.17
2023-04-21T06:34:06.214Z,25.18
2023-04-21T06:35:06.214Z,25.21
2023-04-21T06:36:06.209Z,25.18
2023-04-21T06:37:06.226Z,25.20
2023-04-21T06:38:06.218Z,25.18
2023-04-21T06:39:06.192Z,25.16
2023-04-21T06:40:06.181Z,25.12
2023-04-21T06:41:06.183Z,25.09
2023-04-21T06:42:06.186Z,25.04
2023-04-21T06:43:06.175Z,25.03
2023-04-21T06:44:06.142Z,25.04
2023-04-21T06:45:06.159Z,25.05
2023-04-21T06:46:06.126Z,25.07
2023-04-21T06:47:06.221Z,25.09
2023-04-21T06:48:06.178Z,25.10
2023-04-21T06:49:06.136Z,25.11
2023-04-21T06:50:06.142Z,25.12
2023-04-21T06:51:06.097Z,25.14
2023-04-21T06:52:06.105Z,25.14
2023-04-21T06:53:06.148Z,25.14
2023-04-21T06:54:06.065Z,25.15
2023-04-21T06:55:06.085Z,25.11
2023-04-21T06:56:06.084Z,25.08
2023-04-21T06:57:06.026Z,25.07
2023-04-21T06:58:06.125Z,25.08
2023-04-21T06:59:06.085Z,25.08
2023-04-21T07:00:06.078Z,25.04
2023-04-21T07:01:06.077Z,24.99
2023-04-21T07:02:06.032Z,24.99
2023-04-21T07:03:06.110Z,24.99
2023-04-21T07:04:06.140Z,25.00
2023-04-21T07:05:06.008Z,25.01
2023-04-21T07:06:05.999Z,25.04
2023-04-21T07:07:05.963Z,25.05
2023-04-21T07:08:06.017Z,25.04
2023-04-21T07:09:05.996Z,25.04
2023-04-21T07:10:06.090Z,25.00
2023-04-21T07:11:05.949Z,24.98
2023-04-21T07:12:05.978Z,24.97
2023-04-21T07:13:07.204Z,24.97
2023-04-21T07:14:05.938Z,24.93
2023-04-21T07:15:05.918Z,24.91
2023-04-21T07:16:05.929Z,24.90
2023-04-21T07:17:06.045Z,24.92
2023-04-21T07:18:05.975Z,24.90
2023-04-21T07:19:05.996Z,24.92
2023-04-21T07:20:06.069Z,24.92
2023-04-21T07:21:06.079Z,24.93
2023-04-21T07:22:06.185Z,24.93
2023-04-21T07:23:06.190Z,24.94
2023-04-21T07:24:06.211Z,24.93
2023-04-21T07:25:06.392Z,24.94
2023-04-21T07:26:06.332Z,24.99
2023-04-21T07:27:06.427Z,25.02
2023-04-21T07:28:06.428Z,25.04
2023-04-21T07:29:06.499Z,25.05
2023-04-21T07:30:06.527Z,25.04
2023-04-21T07:31:06.617Z,25.04
2023-04-21T07:32:06.653Z,24.82
2023-04-21T07:33:06.667Z,24.25
2023-04-21T07:34:06.852Z,23.49
2023-04-21T07:35:07.165Z,23.14
2023-04-21T07:36:06.723Z,23.10
2023-04-21T07:37:06.720Z,23.15
2023-04-21T07:38:06.744Z,23.26
2023-04-21T07:39:06.752Z,23.37
2023-04-21T07:40:06.799Z,23.49
2023-04-21T07:41:06.860Z,23.60
2023-04-21T07:42:06.894Z,23.72
2023-04-21T07:43:06.918Z,23.86
2023-04-21T07:44:06.940Z,23.97
2023-04-21T07:45:07.111Z,24.04
2023-04-21T07:46:07.003Z,24.10
2023-04-21T07:47:06.984Z,24.17
2023-04-21T07:48:07.248Z,24.22
2023-04-21T07:49:07.035Z,24.27
2023-04-21T07:50:07.060Z,24.33
2023-04-21T07:51:06.989Z,24.37
2023-04-21T07:52:08.189Z,24.42
2023-04-21T07:53:07.037Z,24.47
2023-04-21T07:54:07.094Z,24.50
2023-04-21T07:55:07.088Z,24.53
2023-04-21T07:56:07.156Z,24.58
2023-04-21T07:57:07.162Z,24.61
2023-04-21T07:58:07.213Z,24.62
2023-04-21T07:59:07.269Z,24.64
2023-04-21T08:00:07.324Z,24.64
2023-04-21T08:01:07.365Z,24.60
2023-04-21T08:02:07.507Z,24.54
2023-04-21T08:03:07.408Z,24.33
2023-04-21T08:04:07.531Z,24.20
2023-04-21T08:05:07.521Z,24.09
2023-04-21T08:06:07.558Z,24.06
2023-04-21T08:07:07.636Z,24.05
2023-04-21T08:08:07.510Z,24.06
2023-04-21T08:09:07.554Z,24.04
2023-04-21T08:10:07.608Z,24.05
2023-04-21T08:11:08.590Z,24.10
2023-04-21T08:12:07.601Z,24.16
2023-04-21T08:13:07.624Z,24.21
2023-04-21T08:14:07.646Z,24.25
2023-04-21T08:15:07.696Z,24.31
2023-04-21T08:16:07.719Z,24.26
2023-04-21T08:17:07.754Z,24.30
2023-04-21T08:18:07.743Z,24.33
2023-04-21T08:19:07.697Z,24.37
2023-04-21T08:20:08.133Z,24.42
2023-04-21T08:21:07.657Z,24.47
2023-04-21T08:22:07.568Z,24.52
2023-04-21T08:23:07.657Z,24.56
2023-04-21T08:24:07.519Z,24.61
2023-04-21T08:25:07.527Z,24.65
2023-04-21T08:26:07.531Z,24.69
2023-04-21T08:27:07.514Z,24.73
2023-04-21T08:28:07.518Z,24.77
2023-04-21T08:29:07.664Z,24.80
2023-04-21T08:30:07.701Z,24.81
2023-04-21T08:31:07.562Z,24.78
2023-04-21T08:32:07.681Z,24.52
2023-04-21T08:33:07.534Z,24.22
2023-04-21T08:34:07.483Z,23.86
2023-04-21T08:35:07.493Z,23.68
2023-04-21T08:36:15.040Z,23.66
2023-04-21T08:37:08.467Z,23.69
2023-04-21T08:38:07.478Z,23.74
2023-04-21T08:39:07.464Z,23.80
2023-04-21T08:40:07.633Z,23.86
2023-04-21T08:41:07.462Z,23.90
2023-04-21T08:42:07.408Z,23.95
2023-04-21T08:43:07.474Z,23.99
2023-04-21T08:44:07.453Z,24.02
2023-04-21T08:45:07.433Z,24.04
2023-04-21T08:46:07.407Z,24.07
2023-04-21T08:47:07.402Z,24.09
2023-04-21T08:48:07.465Z,24.13
2023-04-21T08:49:07.371Z,24.06
2023-04-21T08:50:07.685Z,23.92
2023-04-21T08:51:07.401Z,23.84
2023-04-21T08:52:07.481Z,23.79
2023-04-21T08:53:07.502Z,23.80
2023-04-21T08:54:07.607Z,23.86
2023-04-21T08:55:07.624Z,23.93
2023-04-21T08:56:11.342Z,23.99
2023-04-21T08:57:15.317Z,24.07
2023-04-21T08:58:08.599Z,24.15
2023-04-21T08:59:08.144Z,24.24
2023-04-21T09:00:08.391Z,24.32
2023-04-21T09:01:07.830Z,24.39
2023-04-21T09:02:07.732Z,24.45
2023-04-21T09:03:16.155Z,24.50
2023-04-21T09:04:08.747Z,24.54
2023-04-21T09:05:08.085Z,24.57
2023-04-21T09:06:08.123Z,24.61
2023-04-21T09:07:07.457Z,24.61
2023-04-21T09:08:07.470Z,24.59
2023-04-21T09:09:07.498Z,24.60
2023-04-21T09:10:07.537Z,24.62
2023-04-21T09:11:07.678Z,24.62
2023-04-21T09:12:07.459Z,24.66
2023-04-21T09:13:07.478Z,24.67
2023-04-21T09:14:07.587Z,24.69
2023-04-21T09:15:07.634Z,24.73
2023-04-21T09:16:08.784Z,24.74
2023-04-21T09:17:07.780Z,24.77
2023-04-21T09:18:07.879Z,24.76
2023-04-21T09:19:07.844Z,24.78
2023-04-21T09:20:07.939Z,24.77
2023-04-21T09:21:08.031Z,24.78
2023-04-21T09:22:08.073Z,24.77
2023-04-21T09:23:08.160Z,24.79
2023-04-21T09:24:08.235Z,24.82
2023-04-21T09:25:08.292Z,24.83
2023-04-21T09:26:08.412Z,24.84
2023-04-21T09:27:08.408Z,24.84
2023-04-21T09:28:08.620Z,24.79
2023-04-21T09:29:08.508Z,24.77
2023-04-21T09:30:08.571Z,24.74
2023-04-21T09:31:08.653Z,24.75
2023-04-21T09:32:10.891Z,24.76
2023-04-21T09:33:20.216Z,24.78
2023-04-21T09:34:09.767Z,24.82
2023-04-21T09:35:08.710Z,24.85
2023-04-21T09:36:08.731Z,24.90
2023-04-21T09:37:08.699Z,24.92
2023-04-21T09:38:08.725Z,24.93
2023-04-21T09:40:08.708Z,24.95
2023-04-21T09:41:08.695Z,24.97
2023-04-21T09:42:08.679Z,24.88
2023-04-21T09:43:08.705Z,24.69
2023-04-21T09:44:08.665Z,24.45
2023-04-21T09:45:28.414Z,24.18
2023-04-21T09:46:09.686Z,24.06
2023-04-21T09:47:08.642Z,24.06
2023-04-21T09:48:08.929Z,24.11
2023-04-21T09:49:08.612Z,24.17
2023-04-21T09:50:12.299Z,24.25
2023-04-21T09:52:18.305Z,24.40
2023-04-21T09:53:09.591Z,24.49
2023-04-21T09:54:15.702Z,24.56
2023-04-21T09:55:09.568Z,24.64
2023-04-21T09:56:08.596Z,24.70
2023-04-21T09:57:08.579Z,24.77
2023-04-21T09:58:08.555Z,24.82
2023-04-21T09:59:08.583Z,24.87
2023-04-21T10:00:08.550Z,24.92
2023-04-21T10:01:08.829Z,24.96
2023-04-21T10:02:08.800Z,25.00
2023-04-21T10:03:08.634Z,25.04
2023-04-21T10:04:08.758Z,25.09
2023-04-21T10:05:08.611Z,25.12
2023-04-21T10:06:08.780Z,25.17
2023-04-21T10:07:08.599Z,25.19
2023-04-21T10:08:08.631Z,25.23
2023-04-21T10:09:08.753Z,25.25
2023-04-21T10:10:08.810Z,25.28
2023-04-21T10:11:08.722Z,25.30
2023-04-21T10:12:09.648Z,25.33
2023-04-21T10:13:08.757Z,25.35
2023-04-21T10:14:08.753Z,25.38
2023-04-21T10:15:08.753Z,25.39
2023-04-21T10:16:08.821Z,25.40
2023-04-21T10:17:08.792Z,25.37
2023-04-21T10:18:08.772Z,25.37
2023-04-21T10:19:08.814Z,25.40
2023-04-21T10:20:08.789Z,25.45
2023-04-21T10:21:08.788Z,25.49
2023-04-21T10:22:09.182Z,25.52
2023-04-21T10:23:08.880Z,25.52
2023-04-21T10:24:08.881Z,25.51
2023-04-21T10:25:08.848Z,25.49
2023-04-21T10:26:09.200Z,25.47
2023-04-21T10:27:08.949Z,25.44
2023-04-21T10:28:08.956Z,25.41
2023-04-21T10:29:08.983Z,25.39
2023-04-21T10:30:08.988Z,25.38
2023-04-21T10:31:09.074Z,25.35
2023-04-21T10:32:09.518Z,25.32
2023-04-21T10:33:09.100Z,25.28
2023-04-21T10:34:09.099Z,25.27
2023-04-21T10:35:09.113Z,25.23
2023-04-21T10:36:09.140Z,25.22
2023-04-21T10:37:09.173Z,25.24
2023-04-21T10:38:09.197Z,25.25
2023-04-21T10:39:09.259Z,25.28
2023-04-21T10:40:09.333Z,25.31
2023-04-21T10:41:09.321Z,25.33
2023-04-21T10:42:09.692Z,25.37
2023-04-21T10:43:09.339Z,25.41
2023-04-21T10:44:09.395Z,25.44
2023-04-21T10:45:09.414Z,25.47
2023-04-21T10:46:09.442Z,25.50
2023-04-21T10:47:09.871Z,25.52
2023-04-21T10:48:09.521Z,25.55
2023-04-21T10:49:09.545Z,25.58
2023-04-21T10:50:09.573Z,25.62
2023-04-21T10:51:09.572Z,25.64
2023-04-21T10:52:09.593Z,25.67
2023-04-21T10:53:09.659Z,25.68
2023-04-21T10:54:10.561Z,25.73
2023-04-21T10:55:10.178Z,25.74
2023-04-21T10:56:09.641Z,25.76
2023-04-21T10:57:09.742Z,25.78
2023-04-21T10:58:09.689Z,25.79
2023-04-21T10:59:09.657Z,25.80
2023-04-21T11:00:09.687Z,25.80
2023-04-21T11:01:09.807Z,25.81
2023-04-21T11:02:10.278Z,25.81
2023-04-21T11:03:09.823Z,25.82
2023-04-21T11:04:09.898Z,25.84
2023-04-21T11:05:09.798Z,25.84
2023-04-21T11:06:09.791Z,25.86
2023-04-21T11:07:09.764Z,25.87
2023-04-21T11:08:09.785Z,25.88
2023-04-21T11:09:09.774Z,25.89
2023-04-21T11:10:09.778Z,25.89
2023-04-21T11:11:09.794Z,25.89
2023-04-21T11:12:10.713Z,25.89
2023-04-21T11:13:09.941Z,25.89
2023-04-21T11:14:09.795Z,25.90
2023-04-21T11:15:09.834Z,25.91
2023-04-21T11:16:09.837Z,25.91
2023-04-21T11:17:10.320Z,25.92
2023-04-21T11:18:09.984Z,25.93
2023-04-21T11:19:09.863Z,25.94
2023-04-21T11:20:09.834Z,25.94
2023-04-21T11:21:09.826Z,25.94
2023-04-21T11:22:10.200Z,25.94
2023-04-21T11:23:09.832Z,25.95
2023-04-21T11:24:09.817Z,25.95
2023-04-21T11:25:09.849Z,25.95
2023-04-21T11:26:10.200Z,25.97
2023-04-21T11:27:09.882Z,25.97
2023-04-21T11:28:09.860Z,25.97
2023-04-21T11:29:09.914Z,25.96
2023-04-21T11:30:09.884Z,25.96
2023-04-21T11:31:09.894Z,25.96
2023-04-21T11:32:09.869Z,25.96
2023-04-21T11:33:10.298Z,25.96
2023-04-21T11:34:09.845Z,25.95
2023-04-21T11:35:09.814Z,25.95
2023-04-21T11:36:09.839Z,25.95
2023-04-21T11:37:09.865Z,25.96
2023-04-21T11:38:09.838Z,25.96
2023-04-21T11:39:09.860Z,25.94
2023-04-21T11:40:09.887Z,25.93
2023-04-21T11:41:09.908Z,25.93
2023-04-21T11:42:09.872Z,25.93
2023-04-21T11:43:09.866Z,25.92
2023-04-21T11:44:09.879Z,25.93
2023-04-21T11:45:09.878Z,25.93
2023-04-21T11:46:09.906Z,25.93
2023-04-21T11:47:09.952Z,25.94
2023-04-21T11:48:09.880Z,25.94
2023-04-21T11:49:09.887Z,25.94
2023-04-21T11:50:09.870Z,25.93
2023-04-21T11:51:09.936Z,25.93
2023-04-21T11:52:09.887Z,25.93
2023-04-21T11:53:09.870Z,25.93
2023-04-21T11:54:09.913Z,25.92
2023-04-21T11:55:09.885Z,25.91
2023-04-21T11:56:09.895Z,25.90
2023-04-21T11:57:09.899Z,25.90
2023-04-21T11:58:09.910Z,25.88
2023-04-21T11:59:09.957Z,25.89
2023-04-21T12:00:09.924Z,25.89
2023-04-21T12:01:10.022Z,25.88
2023-04-21T12:02:09.980Z,25.87
2023-04-21T12:03:10.091Z,25.87
2023-04-21T12:04:10.068Z,25.87
2023-04-21T12:05:10.145Z,25.86
2023-04-21T12:06:10.000Z,25.86
2023-04-21T12:07:09.998Z,25.84
2023-04-21T12:08:09.975Z,25.84
2023-04-21T12:09:09.994Z,25.84
2023-04-21T12:10:10.048Z,25.83
2023-04-21T12:11:09.991Z,25.83
2023-04-21T12:12:10.025Z,25.83
2023-04-21T12:13:10.032Z,25.82
2023-04-21T12:14:10.037Z,25.81
2023-04-21T12:15:10.016Z,25.81
2023-04-21T12:16:10.125Z,25.78
2023-04-21T12:17:10.050Z,25.78
2023-04-21T12:18:10.120Z,25.78
2023-04-21T12:19:10.070Z,25.76
2023-04-21T12:20:10.227Z,25.76
2023-04-21T12:21:10.092Z,25.76
2023-04-21T12:22:10.106Z,25.73
2023-04-21T12:23:10.125Z,25.73
2023-04-21T12:24:10.192Z,25.72
2023-04-21T12:25:10.154Z,25.72
2023-04-21T12:26:10.226Z,25.73
2023-04-21T12:27:10.264Z,25.72
2023-04-21T12:28:10.209Z,25.72
2023-04-21T12:29:10.249Z,25.72
2023-04-21T12:30:10.274Z,25.71
2023-04-21T12:31:10.325Z,25.72
2023-04-21T12:32:10.552Z,25.71
2023-04-21T12:33:10.399Z,25.70
2023-04-21T12:34:10.410Z,25.65
2023-04-21T12:35:10.349Z,25.61
2023-04-21T12:36:10.330Z,25.54
2023-04-21T12:37:10.351Z,25.45
2023-04-21T12:38:10.414Z,25.41
2023-04-21T12:39:10.413Z,25.39
2023-04-21T12:40:10.418Z,25.38
2023-04-21T12:41:10.474Z,25.37
2023-04-21T12:42:10.474Z,25.36
2023-04-21T12:43:10.556Z,25.36
2023-04-21T12:44:10.554Z,25.36
2023-04-21T12:45:10.545Z,25.36
2023-04-21T12:46:10.630Z,25.37
2023-04-21T12:47:10.586Z,25.37
2023-04-21T12:48:10.640Z,25.39
2023-04-21T12:49:10.614Z,25.39
2023-04-21T12:50:10.693Z,25.39
2023-04-21T12:51:10.710Z,25.40
2023-04-21T12:52:10.713Z,25.41
2023-04-21T12:53:10.761Z,25.42
2023-04-21T12:54:10.769Z,25.42
2023-04-21T12:55:10.786Z,25.43